Time;durP1;ratioP1;P1;durP2;ratioP2;P2;SDS_P1;SDS_P2;PMS_P1;PMS_P2;Temp;Humidity;BMP_temperature;BMP_pressure;BME280_temperature;BME280_humidity;BME280_pressure;Samples;Min_cycle;Max_cycle;Signal;HPM_P1;HPM_P2
2022/02/11 00:02:16;;;;;;;;;;;;;;;22.81;25.91;101013.94;5053894;28;828;-79
2022/02/11 00:07:26;;;;;;;;;;;;;;;23.26;25.86;101012.84;5054865;28;1273;-84
2022/02/11 00:09:52;;;;;;;;;;;;;;;22.88;26.29;101012.09;5053972;28;1313;-80
2022/02/11 00:12:20;;;;;;;;;;;;;;;22.77;26.82;101014.53;5054883;28;1097;-80
2022/02/11 00:14:54;;;;;;;;;;;;;;;24.47;24.90;101006.84;5053904;28;986;-80
2022/02/11 00:17:20;;;;;;;;;;;;;;;24.52;24.58;101006.19;5054254;28;1002;-77
2022/02/11 00:19:46;;;;;;;;;;;;;;;24.24;24.54;101007.22;5053810;28;1357;-79
2022/02/11 00:22:13;;;;;;;;;;;;;;;24.01;25.41;101005.66;5035527;28;900;-81
2022/02/11 00:24:39;;;;;;;;;;;;;;;22.90;26.39;101011.88;5053546;28;776;-80
2022/02/11 00:27:37;;;;;;;;;;;;;;;23.78;25.23;101005.06;5054520;28;805;-81
2022/02/11 00:32:54;;;;;;;;;;;;;;;24.49;24.41;101006.63;5054139;28;1124;-80
2022/02/11 00:35:27;;;;;;;;;;;;;;;24.33;24.79;101007.88;5053859;28;1911;-80
2022/02/11 00:37:54;;;;;;;;;;;;;;;23.87;25.45;101012.16;5054008;28;927;-81
2022/02/11 00:40:35;;;;;;;;;;;;;;;24.16;25.00;101013.81;5053891;28;1329;-80
2022/02/11 00:44:20;;;;;;;;;;;;;;;24.67;24.55;101011.63;5052799;28;998;-78
2022/02/11 00:46:19;;;;;;;;;;;;;;;24.26;24.78;101013.41;5053464;28;1038;-80
2022/02/11 01:02:27;;;;;;;;;;;;;;;24.65;24.35;100999.84;5054605;28;796;-81
2022/02/11 01:04:53;;;;;;;;;;;;;;;25.04;23.75;100992.59;5056013;28;1125;-80
2022/02/11 01:07:20;;;;;;;;;;;;;;;25.15;24.08;101000.31;5054600;28;982;-80
2022/02/11 01:09:46;;;;;;;;;;;;;;;24.75;24.30;101000.31;5052640;28;1298;-77
2022/02/11 01:12:13;;;;;;;;;;;;;;;24.68;24.30;101000.31;5052853;28;990;-81
2022/02/11 01:14:41;;;;;;;;;;;;;;;25.19;23.91;100996.03;5050853;28;939;-79
2022/02/11 01:17:14;;;;;;;;;;;;;;;25.30;23.70;100993.66;5052171;28;1981;-79
2022/02/11 01:19:54;;;;;;;;;;;;;;;25.42;23.58;100994.75;5053045;28;1321;-79
2022/02/11 01:22:32;;;;;;;;;;;;;;;25.16;23.94;100992.81;5052238;28;1024;-80
2022/02/11 01:25:20;;;;;;;;;;;;;;;24.92;23.75;100988.78;5052355;28;994;-80
2022/02/11 01:27:58;;;;;;;;;;;;;;;25.10;23.91;100988.97;5052604;28;963;-77
2022/02/11 01:33:32;;;;;;;;;;;;;;;24.97;24.13;100984.28;5045355;28;1046;-80
2022/02/11 01:36:11;;;;;;;;;;;;;;;24.14;24.87;100977.09;5050527;28;1911;-79
2022/02/11 01:38:51;;;;;;;;;;;;;;;25.21;23.88;100980.00;5050905;28;1498;-80
2022/02/11 01:42:25;;;;;;;;;;;;;;;25.49;23.35;100984.44;5053405;28;1053;-80
2022/02/11 01:44:57;;;;;;;;;;;;;;;25.27;23.70;100992.19;5053838;28;1205;-80
2022/02/11 01:47:52;;;;;;;;;;;;;;;25.03;24.02;100985.38;5053965;28;1078;-83
2022/02/11 01:53:14;;;;;;;;;;;;;;;25.03;24.13;100971.47;5048304;28;1101;-80
2022/02/11 01:56:01;;;;;;;;;;;;;;;25.02;23.95;100972.53;5054584;28;1981;-81
2022/02/11 01:58:58;;;;;;;;;;;;;;;25.27;23.87;100969.97;5054558;28;1409;-79
2022/02/11 02:10:17;;;;;;;;;;;;;;;24.23;24.81;100959.19;5051509;28;1399;-80
2022/02/11 02:23:41;;;;;;;;;;;;;;;24.60;24.29;100949.66;5050607;28;1102;-80
2022/02/11 02:26:20;;;;;;;;;;;;;;;24.32;24.94;100951.56;5049593;28;852;-79
2022/02/11 02:29:49;;;;;;;;;;;;;;;24.22;24.95;100945.56;5051771;28;1286;-81
2022/02/11 02:32:33;;;;;;;;;;;;;;;24.65;24.61;100939.69;5051591;28;1323;-77
2022/02/11 02:38:07;;;;;;;;;;;;;;;24.65;24.35;100938.81;5035979;28;1192;-77
2022/02/11 02:50:10;;;;;;;;;;;;;;;22.86;26.74;100946.91;5051284;28;1186;-78
2022/02/11 02:57:21;;;;;;;;;;;;;;;25.32;23.84;100930.41;5051102;28;1894;-79
2022/02/11 03:48:32;;;;;;;;;;;;;;;24.99;24.41;100932.19;5054823;28;1984;-80
2022/02/11 03:49:47;;;;;;;;;;;;;;;25.35;23.41;100924.47;5035268;28;1408;-79
2022/02/11 03:55:29;;;;;;;;;;;;;;;24.76;24.31;100927.09;5017007;28;1224;-80
2022/02/11 03:58:15;;;;;;;;;;;;;;;25.21;24.05;100929.16;5035115;28;1977;-81
2022/02/11 04:20:54;;;;;;;;;;;;;;;24.29;25.58;100923.38;5041331;28;1450;-77
2022/02/11 04:27:03;;;;;;;;;;;;;;;25.28;24.39;100924.44;5035964;28;1007;-80
2022/02/11 04:56:38;;;;;;;;;;;;;;;25.25;24.18;100933.19;5031153;28;1926;-77
2022/02/11 05:01:48;;;;;;;;;;;;;;;25.42;23.83;100922.50;5032983;28;1089;-79
2022/02/11 05:04:14;;;;;;;;;;;;;;;25.30;24.40;100935.34;5032327;28;1090;-80
2022/02/11 05:06:40;;;;;;;;;;;;;;;25.02;24.77;100931.75;5032522;28;900;-79
2022/02/11 05:09:07;;;;;;;;;;;;;;;25.18;24.52;100929.59;5032748;28;1298;-80
2022/02/11 05:11:34;;;;;;;;;;;;;;;25.46;24.09;100934.88;5031925;28;1066;-78
2022/02/11 05:14:01;;;;;;;;;;;;;;;25.29;24.23;100926.13;5032576;28;1045;-78
2022/02/11 05:16:27;;;;;;;;;;;;;;;25.33;24.37;100929.34;5031981;28;1906;-77
2022/02/11 05:18:54;;;;;;;;;;;;;;;25.68;23.66;100931.81;5032385;28;1398;-78
2022/02/11 05:21:20;;;;;;;;;;;;;;;25.30;24.39;100927.00;5032351;28;998;-78
2022/02/11 05:23:47;;;;;;;;;;;;;;;25.56;23.79;100934.41;5032701;28;891;-80
2022/02/11 05:26:13;;;;;;;;;;;;;;;24.85;24.48;100948.00;5031370;28;1121;-81
2022/02/11 05:28:40;;;;;;;;;;;;;;;24.96;24.39;100945.63;5031072;28;1356;-78
2022/02/11 05:31:07;;;;;;;;;;;;;;;23.95;25.76;100951.03;5031022;28;1248;-77
2022/02/11 05:33:34;;;;;;;;;;;;;;;25.27;24.48;100950.50;5031992;28;876;-79
2022/02/11 05:36:00;;;;;;;;;;;;;;;25.26;24.41;100950.72;5031317;28;1975;-79
2022/02/11 05:38:26;;;;;;;;;;;;;;;25.05;24.76;100948.00;5016315;28;1586;-79
2022/02/11 05:40:53;;;;;;;;;;;;;;;25.07;24.88;100945.84;5052144;28;783;-78
2022/02/11 05:43:19;;;;;;;;;;;;;;;25.16;24.26;100945.59;5050828;28;753;-79
2022/02/11 05:45:47;;;;;;;;;;;;;;;24.93;24.99;100944.13;5050711;28;982;-79
2022/02/11 05:48:13;;;;;;;;;;;;;;;24.83;24.75;100936.25;5046847;28;1442;-80
2022/02/11 05:50:39;;;;;;;;;;;;;;;24.53;25.07;100942.19;5033327;28;1462;-79
2022/02/11 05:53:06;;;;;;;;;;;;;;;24.78;24.82;100943.53;5046557;28;1572;-80
2022/02/11 05:55:32;;;;;;;;;;;;;;;25.26;24.56;100934.91;5052551;28;1485;-78
2022/02/11 05:57:58;;;;;;;;;;;;;;;25.47;24.11;100947.72;5051896;28;1910;-78
2022/02/11 06:00:26;;;;;;;;;;;;;;;25.26;24.46;100942.41;5051880;28;1305;-78
2022/02/11 06:02:53;;;;;;;;;;;;;;;24.41;25.23;100949.41;5051640;28;1076;-77
2022/02/11 06:05:21;;;;;;;;;;;;;;;25.10;24.92;100949.25;5049805;28;1086;-78
2022/02/11 06:07:47;;;;;;;;;;;;;;;25.13;24.68;100951.59;5051388;28;1226;-79
2022/02/11 06:10:13;;;;;;;;;;;;;;;25.22;24.48;100956.69;5046308;28;1419;-77
2022/02/11 06:12:40;;;;;;;;;;;;;;;24.19;25.40;100944.03;5039991;28;1247;-79
2022/02/11 06:15:07;;;;;;;;;;;;;;;24.47;25.40;100954.13;5034730;28;1263;-77
2022/02/11 06:17:33;;;;;;;;;;;;;;;24.56;25.24;100960.34;5035926;28;1918;-79
2022/02/11 06:20:01;;;;;;;;;;;;;;;24.10;25.34;100959.16;5042038;28;1431;-78
2022/02/11 06:22:28;;;;;;;;;;;;;;;23.77;26.10;100959.88;5051105;28;1437;-79
2022/02/11 06:24:54;;;;;;;;;;;;;;;24.26;25.79;100965.41;5051299;28;986;-77
2022/02/11 06:27:21;;;;;;;;;;;;;;;23.83;25.59;100972.91;5045754;28;1514;-79
2022/02/11 06:29:47;;;;;;;;;;;;;;;23.73;26.50;100972.41;5013596;28;1336;-79
2022/02/11 06:32:13;;;;;;;;;;;;;;;23.49;26.58;100974.66;5066297;22;4271;-74
2022/02/11 06:34:39;;;;;;;;;;;;;;;23.81;25.97;100975.03;5036728;28;1572;-75
2022/02/11 06:37:07;;;;;;;;;;;;;;;23.66;26.13;100985.41;5050222;28;1906;-74
2022/02/11 06:39:33;;;;;;;;;;;;;;;24.24;25.45;100974.78;5045278;28;1556;-73
2022/02/11 06:42:01;;;;;;;;;;;;;;;24.80;25.04;100971.91;5012525;28;1436;-74
2022/02/11 06:44:27;;;;;;;;;;;;;;;24.41;25.22;100974.38;4998987;28;1220;-73
2022/02/11 06:46:53;;;;;;;;;;;;;;;23.90;26.07;100984.91;4996388;28;1260;-74
2022/02/11 06:49:20;;;;;;;;;;;;;;;24.07;25.62;100976.22;5010326;28;1517;-74
2022/02/11 06:51:46;;;;;;;;;;;;;;;23.88;26.01;100977.84;5033489;28;2291;-73
2022/02/11 06:54:13;;;;;;;;;;;;;;;24.93;24.91;100985.78;4999877;28;1338;-73
2022/02/11 06:56:40;;;;;;;;;;;;;;;24.88;24.68;100988.34;5033751;28;1910;-72
2022/02/11 06:59:06;;;;;;;;;;;;;;;25.10;24.30;100979.81;5037021;28;1342;-74
2022/02/11 07:01:32;;;;;;;;;;;;;;;24.89;25.01;100982.59;5016954;28;1502;-72
2022/02/11 07:03:59;;;;;;;;;;;;;;;24.70;24.85;100977.88;5033656;28;1545;-71
2022/02/11 07:06:25;;;;;;;;;;;;;;;25.15;23.99;100985.56;5040260;28;1513;-73
2022/02/11 07:08:51;;;;;;;;;;;;;;;25.48;23.93;100999.44;5049078;28;1509;-71
2022/02/11 07:11:19;;;;;;;;;;;;;;;24.46;24.94;101005.13;5029893;28;1486;-73
2022/02/11 07:13:45;;;;;;;;;;;;;;;24.17;25.64;101003.56;5035400;28;1585;-71
2022/02/11 07:16:11;;;;;;;;;;;;;;;23.85;26.12;101023.44;5037406;28;1505;-73
2022/02/11 07:18:38;;;;;;;;;;;;;;;24.07;25.55;101009.50;5033068;28;1989;-74
2022/02/11 07:21:04;;;;;;;;;;;;;;;24.38;25.17;101013.66;5039858;28;1549;-73
2022/02/11 07:23:30;;;;;;;;;;;;;;;24.84;25.05;101009.25;5041386;28;1473;-72
2022/02/11 07:25:57;;;;;;;;;;;;;;;25.48;23.83;101009.69;5051469;28;1484;-74
2022/02/11 07:28:24;;;;;;;;;;;;;;;25.18;24.26;101004.56;5033165;28;1051;-74
2022/02/11 07:30:51;;;;;;;;;;;;;;;24.46;25.19;101019.00;5034067;28;1553;-72
2022/02/11 07:33:18;;;;;;;;;;;;;;;23.92;25.59;101017.97;5040175;28;1415;-71
2022/02/11 07:35:44;;;;;;;;;;;;;;;24.27;24.89;101020.66;5038521;28;938;-73
2022/02/11 07:38:11;;;;;;;;;;;;;;;23.70;26.18;101033.81;5034568;28;1976;-73
2022/02/11 07:40:39;;;;;;;;;;;;;;;24.66;25.00;101043.19;5047223;28;1454;-74
2022/02/11 07:43:05;;;;;;;;;;;;;;;24.67;24.82;101042.16;5033199;28;1195;-77
2022/02/11 07:45:34;;;;;;;;;;;;;;;24.43;25.05;101041.63;5015089;28;920;-75
2022/02/11 07:48:00;;;;;;;;;;;;;;;24.67;24.72;101048.53;5032635;28;938;-75
2022/02/11 07:50:27;;;;;;;;;;;;;;;24.76;24.79;101054.75;5032312;28;1383;-73
2022/02/11 07:52:53;;;;;;;;;;;;;;;25.21;24.64;101062.47;5014677;28;1284;-75
2022/02/11 07:55:20;;;;;;;;;;;;;;;24.99;24.24;101057.13;5032279;28;1200;-75
2022/02/11 07:57:46;;;;;;;;;;;;;;;25.47;24.26;101060.75;5015201;28;1914;-74
2022/02/11 08:00:14;;;;;;;;;;;;;;;25.33;24.85;101069.06;5033286;28;804;-74
2022/02/11 08:02:42;;;;;;;;;;;;;;;25.36;24.12;101073.38;5032362;28;1458;-75
2022/02/11 08:05:09;;;;;;;;;;;;;;;24.71;24.66;101074.81;5032452;28;1061;-74
2022/02/11 08:07:35;;;;;;;;;;;;;;;24.20;25.57;101076.09;5014550;28;1110;-75
2022/02/11 08:10:01;;;;;;;;;;;;;;;24.60;24.97;101072.63;5028085;28;954;-74
2022/02/11 08:12:29;;;;;;;;;;;;;;;24.10;25.01;101081.16;5032266;28;1507;-74
2022/02/11 08:14:55;;;;;;;;;;;;;;;24.78;24.50;101069.25;5014723;28;1474;-73
2022/02/11 08:17:22;;;;;;;;;;;;;;;24.23;25.28;101081.22;5042319;28;1918;-76
2022/02/11 08:19:49;;;;;;;;;;;;;;;24.03;25.49;101080.28;5017274;28;1287;-75
2022/02/11 08:22:17;;;;;;;;;;;;;;;24.66;24.91;101080.13;5016455;28;1518;-75
2022/02/11 08:24:43;;;;;;;;;;;;;;;24.44;24.94;101082.16;5030536;28;1300;-74
2022/02/11 08:27:13;;;;;;;;;;;;;;;25.36;24.68;101079.81;4993740;28;1133;-73
2022/02/11 08:29:39;;;;;;;;;;;;;;;25.21;24.55;101076.34;5030933;28;1501;-73
2022/02/11 08:32:06;;;;;;;;;;;;;;;24.87;24.40;101079.09;5044204;28;1486;-76
2022/02/11 08:34:33;;;;;;;;;;;;;;;26.03;23.31;101081.63;5031370;28;1522;-73
2022/02/11 08:37:00;;;;;;;;;;;;;;;24.95;24.42;101089.16;5031883;28;1991;-75
2022/02/11 08:39:27;;;;;;;;;;;;;;;26.03;23.30;101089.97;5042447;28;1546;-75
2022/02/11 08:41:53;;;;;;;;;;;;;;;25.92;23.49;101087.84;5015224;28;1428;-76
2022/02/11 08:44:20;;;;;;;;;;;;;;;25.66;23.96;101090.47;5013703;28;999;-72
2022/02/11 08:46:46;;;;;;;;;;;;;;;24.74;24.63;101085.47;5038475;28;1506;-73
2022/02/11 08:49:13;;;;;;;;;;;;;;;24.49;25.50;101103.72;5015331;28;1308;-73
2022/02/11 08:51:39;;;;;;;;;;;;;;;25.36;24.56;101103.94;5033232;28;1526;-75
2022/02/11 08:54:07;;;;;;;;;;;;;;;23.42;26.27;101117.78;5015019;28;1596;-75
2022/02/11 08:56:34;;;;;;;;;;;;;;;23.18;26.63;101108.84;5010862;28;1368;-74
2022/02/11 08:59:00;;;;;;;;;;;;;;;23.85;26.20;101123.22;5004074;28;1979;-76
2022/02/11 09:01:43;;;;;;;;;;;;;;;;;;;;;
2022/02/11 09:04:10;;;;;;;;;;;;;;;22.66;27.04;101132.09;5044646;28;1400;-72
2022/02/11 09:06:47;;;;;;;;;;;;;;;24.06;24.51;101129.78;5033321;28;1486;-73
2022/02/11 09:09:15;;;;;;;;;;;;;;;23.99;24.68;101123.34;5031488;28;845;-72
2022/02/11 09:11:42;;;;;;;;;;;;;;;24.28;24.00;101132.44;5034454;28;1527;-74
2022/02/11 09:14:08;;;;;;;;;;;;;;;23.99;24.11;101124.19;5033345;28;1529;-76
2022/02/11 09:16:35;;;;;;;;;;;;;;;23.32;24.48;101128.38;5016500;28;1533;-74
2022/02/11 09:19:01;;;;;;;;;;;;;;;24.51;24.09;101129.38;5020247;28;2037;-76
2022/02/11 09:21:28;;;;;;;;;;;;;;;24.34;23.39;101132.47;5008920;28;1314;-75
2022/02/11 09:23:54;;;;;;;;;;;;;;;24.53;23.79;101135.53;5032562;28;1307;-76
2022/02/11 09:26:22;;;;;;;;;;;;;;;24.94;23.40;101131.00;5032640;28;1485;-73
2022/02/11 09:28:48;;;;;;;;;;;;;;;24.03;24.06;101130.19;5023192;28;1522;-73
2022/02/11 09:31:15;;;;;;;;;;;;;;;24.74;23.57;101129.88;5025443;28;1514;-72
2022/02/11 09:33:41;;;;;;;;;;;;;;;25.51;23.04;101132.38;5039745;28;1351;-74
2022/02/11 09:36:08;;;;;;;;;;;;;;;26.84;22.32;101135.88;5035007;28;1328;-75
2022/02/11 09:38:34;;;;;;;;;;;;;;;26.82;21.57;101142.78;5030244;28;1922;-76
2022/02/11 09:41:01;;;;;;;;;;;;;;;27.44;21.15;101145.78;5006477;28;1565;-76
2022/02/11 09:43:28;;;;;;;;;;;;;;;27.37;21.21;101139.41;5031180;28;996;-75
2022/02/11 09:45:55;;;;;;;;;;;;;;;28.72;19.82;101148.97;5032321;28;1478;-76
2022/02/11 09:48:23;;;;;;;;;;;;;;;29.24;19.68;101147.56;5014582;28;1350;-76
2022/02/11 09:50:53;;;;;;;;;;;;;;;28.78;19.42;101151.91;5036955;28;1498;-75
2022/02/11 09:53:19;;;;;;;;;;;;;;;28.57;20.15;101159.66;5016623;28;1472;-77
2022/02/11 09:55:45;;;;;;;;;;;;;;;29.50;19.88;101154.69;5030290;28;1171;-77
2022/02/11 09:58:13;;;;;;;;;;;;;;;29.84;19.50;101163.34;5037771;28;2007;-75
2022/02/11 10:00:41;;;;;;;;;;;;;;;29.41;19.32;101174.84;5031771;28;1564;-76
2022/02/11 10:03:15;;;;;;;;;;;;;;;29.05;20.33;101178.38;5035463;28;1270;-74
2022/02/11 10:05:41;;;;;;;;;;;;;;;29.26;20.17;101172.50;5045386;28;1509;-75
2022/02/11 10:08:08;;;;;;;;;;;;;;;29.88;19.57;101183.34;5037538;28;1568;-76
2022/02/11 10:10:42;;;;;;;;;;;;;;;28.02;21.08;101180.91;5019429;28;1506;-75
2022/02/11 10:13:09;;;;;;;;;;;;;;;27.53;21.59;101191.81;5029806;28;1296;-75
2022/02/11 10:15:37;;;;;;;;;;;;;;;26.00;22.67;101190.50;5024256;28;1541;-75
2022/02/11 10:18:05;;;;;;;;;;;;;;;26.09;22.57;101189.22;5031003;28;1918;-73
2022/02/11 10:20:35;;;;;;;;;;;;;;;25.14;23.48;101187.44;5029717;28;1492;-75
2022/02/11 10:23:11;;;;;;;;;;;;;;;26.30;22.73;101199.25;5030192;28;907;-75
2022/02/11 10:25:51;;;;;;;;;;;;;;;26.65;22.31;101196.13;5012165;28;1573;-75
2022/02/11 10:28:21;;;;;;;;;;;;;;;26.85;22.43;101193.28;5029828;28;1015;-74
2022/02/11 10:31:01;;;;;;;;;;;;;;;26.87;21.97;101195.84;5033455;28;1530;-75
2022/02/11 10:33:29;;;;;;;;;;;;;;;25.87;22.75;101189.44;5036612;28;979;-75
2022/02/11 10:35:56;;;;;;;;;;;;;;;26.34;22.38;101191.31;5033635;28;1569;-74
2022/02/11 10:38:29;;;;;;;;;;;;;;;25.44;23.53;101187.09;5033405;28;1976;-75
2022/02/11 10:40:59;;;;;;;;;;;;;;;25.62;23.18;101194.78;5016819;28;1549;-76
2022/02/11 10:43:26;;;;;;;;;;;;;;;26.59;23.19;101190.59;5048659;28;1272;-75
2022/02/11 10:45:54;;;;;;;;;;;;;;;26.01;22.23;101195.00;5040471;28;1525;-75
2022/02/11 10:48:23;;;;;;;;;;;;;;;26.94;22.12;101190.22;5033576;28;1070;-75
2022/02/11 10:50:54;;;;;;;;;;;;;;;26.73;21.82;101192.28;5046801;28;1596;-73
2022/02/11 10:53:22;;;;;;;;;;;;;;;26.12;22.61;101194.34;5052160;28;1003;-75
2022/02/11 10:55:49;;;;;;;;;;;;;;;26.38;21.93;101192.59;5034653;28;1581;-75
2022/02/11 10:58:15;;;;;;;;;;;;;;;26.35;21.92;101188.31;5015719;28;1915;-75
2022/02/11 11:00:42;;;;;;;;;;;;;;;26.29;22.02;101193.91;5032595;28;1517;-75
2022/02/11 11:03:10;;;;;;;;;;;;;;;26.18;22.64;101199.06;5017300;28;1505;-75
2022/02/11 11:05:37;;;;;;;;;;;;;;;27.25;21.57;101195.00;5033739;28;1514;-76
2022/02/11 11:08:05;;;;;;;;;;;;;;;28.04;20.62;101191.81;5035254;28;1276;-72
2022/02/11 11:10:33;;;;;;;;;;;;;;;27.45;21.37;101191.25;5046152;28;1497;-72
2022/02/11 11:13:01;;;;;;;;;;;;;;;27.29;21.15;101206.53;5040605;28;1590;-74
2022/02/11 11:15:28;;;;;;;;;;;;;;;27.26;20.80;101201.41;5035697;28;1042;-74
2022/02/11 11:17:55;;;;;;;;;;;;;;;26.44;22.03;101193.63;5004750;28;1914;-75
2022/02/11 11:20:23;;;;;;;;;;;;;;;26.17;21.65;101202.91;5032701;28;1413;-72
2022/02/11 11:22:52;;;;;;;;;;;;;;;26.78;21.66;101191.59;5031466;28;1523;-74
2022/02/11 11:25:20;;;;;;;;;;;;;;;27.60;20.86;101196.47;5033255;28;1006;-73
2022/02/11 11:27:49;;;;;;;;;;;;;;;27.98;20.85;101196.34;5036106;28;1285;-74
2022/02/11 11:30:23;;;;;;;;;;;;;;;28.55;20.61;101201.78;5032999;28;1110;-74
2022/02/11 11:33:19;;;;;;;;;;;;;;;28.39;20.05;101207.97;5015035;28;1216;-75
2022/02/11 11:36:03;;;;;;;;;;;;;;;28.46;20.11;101207.91;5031402;28;1210;-73
2022/02/11 11:38:38;;;;;;;;;;;;;;;28.17;20.84;101208.44;5023409;28;1919;-73
2022/02/11 11:41:08;;;;;;;;;;;;;;;28.59;20.60;101216.13;5031588;28;1423;-74
2022/02/11 11:43:36;;;;;;;;;;;;;;;26.96;21.63;101216.78;5026967;28;1580;-74
2022/02/11 11:46:03;;;;;;;;;;;;;;;27.99;20.38;101216.72;5021687;28;1379;-75
2022/02/11 11:48:39;;;;;;;;;;;;;;;27.80;20.54;101218.63;5027623;28;1470;-74
2022/02/11 11:51:05;;;;;;;;;;;;;;;27.86;20.07;101221.34;5037206;28;1561;-74
2022/02/11 11:53:32;;;;;;;;;;;;;;;26.97;20.95;101218.50;5017193;28;1287;-74
2022/02/11 11:55:58;;;;;;;;;;;;;;;27.90;19.93;101216.19;5026871;28;1211;-75
2022/02/11 11:58:43;;;;;;;;;;;;;;;27.73;20.38;101215.91;5031544;28;1910;-74
2022/02/11 12:01:18;;;;;;;;;;;;;;;29.18;19.29;101218.38;5035129;28;1518;-74
2022/02/11 12:03:59;;;;;;;;;;;;;;;27.29;20.67;101215.75;5031485;28;1533;-73
2022/02/11 12:06:25;;;;;;;;;;;;;;;27.85;20.63;101230.78;5005054;28;1512;-73
2022/02/11 12:08:52;;;;;;;;;;;;;;;27.35;20.76;101233.50;5024003;28;1308;-75
2022/02/11 12:11:18;;;;;;;;;;;;;;;27.17;21.52;101240.69;5039744;28;1824;-73
2022/02/11 12:13:46;;;;;;;;;;;;;;;26.33;22.05;101239.69;5042945;28;1568;-74
2022/02/11 12:16:12;;;;;;;;;;;;;;;26.97;21.75;101249.13;5048951;28;1496;-72
2022/02/11 12:18:40;;;;;;;;;;;;;;;27.56;21.30;101240.69;5016654;28;1918;-73
2022/02/11 12:21:07;;;;;;;;;;;;;;;27.49;20.93;101245.47;5018394;28;1418;-74
2022/02/11 12:29:05;;;;;;;;;;;;;;;27.25;20.42;101252.66;4991272;28;1615;-74
2022/02/11 12:31:31;;;;;;;;;;;;;;;26.28;21.17;101245.88;5030739;23;3535;-75
2022/02/11 12:34:11;;;;;;;;;;;;;;;25.49;22.23;101251.22;5051487;28;1217;-78
2022/02/11 12:36:38;;;;;;;;;;;;;;;26.68;22.03;101256.91;5050289;28;1034;-74
2022/02/11 12:39:04;;;;;;;;;;;;;;;27.23;20.70;101258.44;5038649;28;1922;-77
2022/02/11 12:41:42;;;;;;;;;;;;;;;28.04;21.05;101254.03;5051623;28;1334;-77
2022/02/11 12:44:10;;;;;;;;;;;;;;;27.65;20.42;101249.63;5051342;28;1466;-76
2022/02/11 12:46:37;;;;;;;;;;;;;;;29.34;19.08;101258.81;5049602;28;1889;-76
2022/02/11 12:49:04;;;;;;;;;;;;;;;29.06;19.25;101261.13;5043473;28;1272;-77
2022/02/11 12:51:31;;;;;;;;;;;;;;;29.54;18.87;101256.59;5044165;28;1553;-77
2022/02/11 12:54:02;;;;;;;;;;;;;;;28.70;18.64;101259.19;5036796;28;1166;-78
2022/02/11 12:56:32;;;;;;;;;;;;;;;28.53;18.29;101270.09;5037704;28;1163;-77
2022/02/11 12:59:04;;;;;;;;;;;;;;;27.81;18.84;101268.59;5051439;28;1910;-77
2022/02/11 13:01:32;;;;;;;;;;;;;;;28.89;17.95;101268.44;5051462;28;1573;-76
2022/02/11 13:03:59;;;;;;;;;;;;;;;28.78;17.93;101272.84;5051222;28;1433;-78
2022/02/11 13:06:25;;;;;;;;;;;;;;;27.70;18.97;101274.88;5033513;28;963;-76
2022/02/11 13:08:59;;;;;;;;;;;;;;;28.48;18.57;101283.91;5051131;28;1561;-76
2022/02/11 13:11:27;;;;;;;;;;;;;;;27.20;18.69;101289.53;5051011;28;1510;-75
2022/02/11 13:13:59;;;;;;;;;;;;;;;27.06;19.24;101297.09;5051012;28;1505;-75
2022/02/11 13:16:26;;;;;;;;;;;;;;;27.22;20.25;101295.75;5050656;28;1509;-76
2022/02/11 13:18:53;;;;;;;;;;;;;;;26.70;20.84;101307.69;5051229;28;1914;-75
2022/02/11 13:21:21;;;;;;;;;;;;;;;27.12;20.34;101315.69;5051291;28;1328;-72
2022/02/11 13:23:50;;;;;;;;;;;;;;;26.18;20.83;101315.88;5051538;28;998;-74
2022/02/11 13:26:16;;;;;;;;;;;;;;;27.44;19.74;101324.16;5051419;28;949;-73
2022/02/11 13:28:43;;;;;;;;;;;;;;;26.97;20.14;101317.91;5051301;28;987;-75
2022/02/11 13:31:10;;;;;;;;;;;;;;;27.18;20.27;101322.34;5033566;28;1135;-72
2022/02/11 13:33:36;;;;;;;;;;;;;;;27.88;19.47;101325.16;5034969;28;1297;-73
2022/02/11 13:36:05;;;;;;;;;;;;;;;27.72;19.61;101325.72;5031090;28;995;-75
2022/02/11 13:38:32;;;;;;;;;;;;;;;27.13;19.73;101328.56;5032646;28;1977;-75
2022/02/11 13:41:00;;;;;;;;;;;;;;;26.97;20.09;101341.03;5050895;28;1604;-73
2022/02/11 13:43:27;;;;;;;;;;;;;;;28.39;19.75;101339.16;5046861;28;1545;-75
2022/02/11 13:45:54;;;;;;;;;;;;;;;26.99;20.20;101343.59;5050236;28;1555;-75
2022/02/11 13:48:21;;;;;;;;;;;;;;;29.09;19.00;101339.97;5050588;28;1177;-76
2022/02/11 13:50:58;;;;;;;;;;;;;;;27.58;19.30;101350.03;5053427;28;999;-75
2022/02/11 13:53:30;;;;;;;;;;;;;;;28.20;18.42;101338.25;5046715;28;1576;-76
2022/02/11 13:55:57;;;;;;;;;;;;;;;30.08;17.15;101345.28;5033153;28;961;-75
2022/02/11 13:58:23;;;;;;;;;;;;;;;30.21;16.41;101358.19;5040312;28;1530;-76
2022/02/11 14:00:50;;;;;;;;;;;;;;;30.88;15.53;101352.28;5032633;28;1918;-76
2022/02/11 14:03:20;;;;;;;;;;;;;;;31.35;15.65;101361.72;5040906;28;1428;-76
2022/02/11 14:05:47;;;;;;;;;;;;;;;31.45;15.44;101366.69;5047636;28;1020;-76
2022/02/11 14:08:14;;;;;;;;;;;;;;;30.01;16.56;101375.31;5050647;28;1461;-76
2022/02/11 14:10:43;;;;;;;;;;;;;;;29.47;17.49;101384.44;5049505;28;1595;-75
2022/02/11 14:13:10;;;;;;;;;;;;;;;29.16;18.62;101385.47;5055673;28;1591;-78
2022/02/11 14:15:39;;;;;;;;;;;;;;;26.15;20.93;101387.78;5060983;28;1232;-76
2022/02/11 14:18:06;;;;;;;;;;;;;;;26.48;20.32;101384.16;5042895;28;994;-76
2022/02/11 14:20:35;;;;;;;;;;;;;;;25.30;21.58;101394.53;5029751;28;1914;-77
2022/02/11 14:23:11;;;;;;;;;;;;;;;26.55;20.48;101394.22;5052502;28;1339;-76
2022/02/11 14:25:37;;;;;;;;;;;;;;;25.44;21.24;101405.75;5049231;28;1422;-75
2022/02/11 14:28:05;;;;;;;;;;;;;;;26.30;20.75;101413.47;5049865;28;1454;-76
2022/02/11 14:30:31;;;;;;;;;;;;;;;25.31;21.35;101418.47;5052951;28;1458;-76
2022/02/11 14:32:57;;;;;;;;;;;;;;;26.08;21.03;101418.34;5053246;28;1281;-76
2022/02/11 14:35:24;;;;;;;;;;;;;;;25.97;21.24;101421.75;5053507;28;1434;-74
2022/02/11 14:37:50;;;;;;;;;;;;;;;24.85;21.74;101408.81;5039458;28;1462;-76
2022/02/11 14:40:16;;;;;;;;;;;;;;;26.63;20.35;101414.53;5024196;28;1983;-78
2022/02/11 14:42:43;;;;;;;;;;;;;;;26.99;20.26;101422.47;5032651;28;1353;-76
2022/02/11 14:45:11;;;;;;;;;;;;;;;25.98;20.89;101427.09;5050810;28;1399;-76
2022/02/11 14:47:37;;;;;;;;;;;;;;;26.77;20.19;101427.41;5055933;28;962;-76
2022/02/11 14:50:03;;;;;;;;;;;;;;;25.45;21.85;101440.81;5047235;28;1710;-74
2022/02/11 14:52:30;;;;;;;;;;;;;;;27.30;20.41;101431.16;5032159;28;1353;-74
2022/02/11 14:54:58;;;;;;;;;;;;;;;27.14;20.28;101433.38;5050216;28;1458;-76
2022/02/11 14:57:24;;;;;;;;;;;;;;;26.64;20.40;101450.50;5050258;28;900;-76
2022/02/11 14:59:50;;;;;;;;;;;;;;;26.34;20.99;101448.16;5049531;28;1912;-75
2022/02/11 15:02:18;;;;;;;;;;;;;;;26.60;20.84;101462.31;5050114;28;1273;-77
2022/02/11 15:04:46;;;;;;;;;;;;;;;24.07;22.89;101455.91;5011660;28;1888;-77
2022/02/11 15:07:12;;;;;;;;;;;;;;;25.39;21.62;101467.50;5050125;28;1054;-76
2022/02/11 15:09:38;;;;;;;;;;;;;;;26.09;20.95;101469.31;5049518;28;894;-76
2022/02/11 15:12:05;;;;;;;;;;;;;;;25.48;21.72;101477.38;5044741;28;1478;-76
2022/02/11 15:14:32;;;;;;;;;;;;;;;25.99;21.02;101478.00;5046593;28;2241;-76
2022/02/11 15:16:59;;;;;;;;;;;;;;;25.77;21.55;101486.47;5049030;28;1142;-76
2022/02/11 15:19:27;;;;;;;;;;;;;;;26.01;21.25;101487.84;5042982;28;2350;-77
2022/02/11 15:21:53;;;;;;;;;;;;;;;25.71;21.54;101490.94;5043536;28;1421;-77
2022/02/11 15:24:19;;;;;;;;;;;;;;;25.69;22.08;101504.19;5043525;28;1259;-76
2022/02/11 15:26:46;;;;;;;;;;;;;;;25.90;21.19;101508.78;5043807;28;1358;-78
2022/02/11 15:29:12;;;;;;;;;;;;;;;26.16;21.01;101512.75;5051694;28;1435;-75
2022/02/11 15:31:39;;;;;;;;;;;;;;;25.68;21.20;101507.19;5044247;28;1511;-75
2022/02/11 15:34:05;;;;;;;;;;;;;;;25.34;21.59;101518.09;5031885;28;2336;-75
2022/02/11 15:36:33;;;;;;;;;;;;;;;24.25;22.85;101530.31;5040824;28;1537;-75
2022/02/11 15:38:59;;;;;;;;;;;;;;;24.98;22.04;101532.13;5052340;28;1361;-75
2022/02/11 15:41:26;;;;;;;;;;;;;;;24.55;22.28;101538.53;5050226;28;1979;-76
2022/02/11 15:43:54;;;;;;;;;;;;;;;23.97;23.36;101541.28;5053849;28;938;-76
2022/02/11 15:46:21;;;;;;;;;;;;;;;25.22;22.14;101547.47;5053243;28;1342;-76
2022/02/11 15:48:47;;;;;;;;;;;;;;;25.72;21.50;101550.19;5053434;28;910;-76
2022/02/11 15:51:15;;;;;;;;;;;;;;;25.72;21.29;101552.97;5053206;28;1494;-76
2022/02/11 15:53:43;;;;;;;;;;;;;;;25.48;21.64;101554.31;5052532;28;1472;-76